DAL1042 KATL-KTPA
Flight info
| Callsign | DAL1042 |
|---|---|
| Flight time | 1h 9m |
| Altitude | 36000 |
| Route | BANNG3 LUCKK HONID MAATY5 |
| Aircraft | A320/M-SDE3FGHIRWY/LB1 |
Departure
| Time | 2026-05-03 20:24 |
|---|---|
| Airport | Hartsfield Jackson Atlanta International Airport (KATL) |
Arrival
| Time | 2026-05-03 21:33 |
|---|---|
| Airport | Tampa International Airport (KTPA) |
| Time | Latitude | Longitude | Altitude | Speed | Heading |
|---|---|---|---|---|---|
| 2026-05-03 20:15 | 33.64032 | -84.43459 | 1006 ft | 0 kts | 180° |
| 2026-05-03 20:16 | 33.64031 | -84.43459 | 1006 ft | 1 kts | 180° |
| 2026-05-03 20:16 | 33.63977 | -84.43458 | 1006 ft | 11 kts | 180° |
| 2026-05-03 20:16 | 33.63904 | -84.43458 | 1006 ft | 10 kts | 180° |
| 2026-05-03 20:16 | 33.63841 | -84.43458 | 1006 ft | 8 kts | 180° |
| 2026-05-03 20:17 | 33.63788 | -84.43458 | 1006 ft | 7 kts | 180° |
| 2026-05-03 20:17 | 33.63743 | -84.43458 | 1006 ft | 6 kts | 180° |
| 2026-05-03 20:17 | 33.63705 | -84.43458 | 1006 ft | 6 kts | 178° |
| 2026-05-03 20:17 | 33.63625 | -84.43428 | 1006 ft | 15 kts | 154° |
| 2026-05-03 20:18 | 33.63591 | -84.43396 | 1005 ft | 0 kts | 130° |
| 2026-05-03 20:18 | 33.63590 | -84.43394 | 1005 ft | 3 kts | 120° |
| 2026-05-03 20:19 | 33.63582 | -84.43337 | 1005 ft | 7 kts | 92° |
| 2026-05-03 20:19 | 33.63582 | -84.43273 | 1005 ft | 12 kts | 90° |
| 2026-05-03 20:19 | 33.63582 | -84.43113 | 1006 ft | 21 kts | 89° |
| 2026-05-03 20:19 | 33.63581 | -84.42934 | 1006 ft | 22 kts | 91° |
| 2026-05-03 20:20 | 33.63582 | -84.42775 | 1006 ft | 18 kts | 90° |
| 2026-05-03 20:20 | 33.63581 | -84.42635 | 1007 ft | 16 kts | 90° |
| 2026-05-03 20:20 | 33.63581 | -84.42511 | 1007 ft | 14 kts | 90° |
| 2026-05-03 20:20 | 33.63582 | -84.42393 | 1007 ft | 17 kts | 90° |
| 2026-05-03 20:21 | 33.63582 | -84.42240 | 1007 ft | 18 kts | 90° |
| 2026-05-03 20:21 | 33.63581 | -84.42100 | 1007 ft | 16 kts | 89° |
| 2026-05-03 20:21 | 33.63582 | -84.41972 | 1006 ft | 15 kts | 89° |
| 2026-05-03 20:21 | 33.63583 | -84.41850 | 1006 ft | 17 kts | 89° |
| 2026-05-03 20:22 | 33.63583 | -84.41684 | 1006 ft | 21 kts | 90° |
| 2026-05-03 20:22 | 33.63581 | -84.41508 | 1005 ft | 21 kts | 90° |
| 2026-05-03 20:22 | 33.63580 | -84.41335 | 1005 ft | 21 kts | 91° |
| 2026-05-03 20:22 | 33.63581 | -84.41170 | 1006 ft | 19 kts | 89° |
| 2026-05-03 20:23 | 33.63581 | -84.41113 | 1006 ft | 0 kts | 89° |
| 2026-05-03 20:23 | 33.63579 | -84.41069 | 1006 ft | 15 kts | 105° |
| 2026-05-03 20:23 | 33.63491 | -84.41047 | 1006 ft | 14 kts | 211° |
| 2026-05-03 20:23 | 33.63471 | -84.41164 | 1005 ft | 17 kts | 270° |
| 2026-05-03 20:24 | 33.63470 | -84.41501 | 1006 ft | 75 kts | 270° |
| 2026-05-03 20:24 | 33.63472 | -84.42386 | 1008 ft | 135 kts | 270° |
| 2026-05-03 20:24 | 33.63469 | -84.43679 | 1209 ft | 164 kts | 270° |
| 2026-05-03 20:24 | 33.63481 | -84.45115 | 1655 ft | 182 kts | 271° |
| 2026-05-03 20:25 | 33.63480 | -84.46636 | 2476 ft | 181 kts | 270° |
| 2026-05-03 20:25 | 33.63461 | -84.48164 | 3090 ft | 191 kts | 270° |
| 2026-05-03 20:25 | 33.63449 | -84.49866 | 3395 ft | 216 kts | 271° |
| 2026-05-03 20:25 | 33.63465 | -84.51756 | 3898 ft | 237 kts | 271° |
| 2026-05-03 20:26 | 33.63485 | -84.53811 | 4453 ft | 255 kts | 270° |
| 2026-05-03 20:26 | 33.63494 | -84.55997 | 5126 ft | 268 kts | 270° |
| 2026-05-03 20:26 | 33.63518 | -84.58277 | 5947 ft | 272 kts | 271° |
| 2026-05-03 20:26 | 33.63520 | -84.60460 | 7372 ft | 251 kts | 269° |
| 2026-05-03 20:27 | 33.63335 | -84.62585 | 8151 ft | 265 kts | 260° |
| 2026-05-03 20:27 | 33.62801 | -84.64732 | 8888 ft | 275 kts | 247° |
| 2026-05-03 20:27 | 33.61761 | -84.66658 | 9723 ft | 283 kts | 230° |
| 2026-05-03 20:27 | 33.60174 | -84.68107 | 10446 ft | 292 kts | 211° |
| 2026-05-03 20:28 | 33.58268 | -84.69014 | 11213 ft | 299 kts | 197° |
| 2026-05-03 20:28 | 33.56186 | -84.69344 | 11993 ft | 306 kts | 182° |
| 2026-05-03 20:28 | 33.54053 | -84.69075 | 12782 ft | 311 kts | 173° |
| 2026-05-03 20:28 | 33.51906 | -84.68663 | 13583 ft | 314 kts | 174° |
| 2026-05-03 20:29 | 33.49734 | -84.68251 | 14311 ft | 317 kts | 174° |
| 2026-05-03 20:29 | 33.47545 | -84.67839 | 14998 ft | 320 kts | 174° |
| 2026-05-03 20:29 | 33.45335 | -84.67424 | 15695 ft | 323 kts | 174° |
| 2026-05-03 20:29 | 33.43110 | -84.67002 | 16374 ft | 326 kts | 172° |
| 2026-05-03 20:30 | 33.40910 | -84.66230 | 16921 ft | 338 kts | 161° |
| 2026-05-03 20:30 | 33.38683 | -84.65059 | 17048 ft | 359 kts | 159° |
| 2026-05-03 20:30 | 33.36348 | -84.63798 | 17276 ft | 376 kts | 159° |
| 2026-05-03 20:30 | 33.33947 | -84.62487 | 17809 ft | 382 kts | 158° |
| 2026-05-03 20:31 | 33.31512 | -84.61155 | 18422 ft | 386 kts | 159° |
| 2026-05-03 20:31 | 33.29057 | -84.59817 | 18983 ft | 390 kts | 159° |
| 2026-05-03 20:31 | 33.26580 | -84.58475 | 19560 ft | 392 kts | 159° |
| 2026-05-03 20:31 | 33.24079 | -84.57126 | 20130 ft | 395 kts | 159° |
| 2026-05-03 20:32 | 33.21562 | -84.55776 | 20704 ft | 398 kts | 159° |
| 2026-05-03 20:32 | 33.19028 | -84.54421 | 21280 ft | 401 kts | 159° |
| 2026-05-03 20:32 | 33.16476 | -84.53056 | 21836 ft | 404 kts | 159° |
| 2026-05-03 20:32 | 33.13902 | -84.51676 | 22419 ft | 407 kts | 159° |
| 2026-05-03 20:33 | 33.11345 | -84.50304 | 22944 ft | 410 kts | 159° |
| 2026-05-03 20:33 | 33.08701 | -84.48884 | 23494 ft | 412 kts | 160° |
| 2026-05-03 20:33 | 33.06110 | -84.47496 | 23964 ft | 415 kts | 160° |
| 2026-05-03 20:33 | 33.03466 | -84.46077 | 24381 ft | 418 kts | 160° |
| 2026-05-03 20:34 | 33.00811 | -84.44652 | 24821 ft | 420 kts | 161° |
| 2026-05-03 20:34 | 32.98086 | -84.43271 | 25236 ft | 419 kts | 166° |
| 2026-05-03 20:34 | 32.95290 | -84.42385 | 25632 ft | 415 kts | 176° |
| 2026-05-03 20:34 | 32.92469 | -84.42056 | 26024 ft | 411 kts | 185° |
| 2026-05-03 20:35 | 32.89607 | -84.42008 | 26418 ft | 412 kts | 185° |
| 2026-05-03 20:35 | 32.86728 | -84.41955 | 26814 ft | 414 kts | 185° |
| 2026-05-03 20:35 | 32.83832 | -84.41898 | 27198 ft | 416 kts | 185° |
| 2026-05-03 20:35 | 32.80928 | -84.41840 | 27574 ft | 418 kts | 185° |
| 2026-05-03 20:36 | 32.78013 | -84.41779 | 27950 ft | 420 kts | 186° |
| 2026-05-03 20:36 | 32.75077 | -84.41715 | 28306 ft | 422 kts | 186° |
| 2026-05-03 20:36 | 32.72133 | -84.41651 | 28706 ft | 423 kts | 186° |
| 2026-05-03 20:36 | 32.69185 | -84.41590 | 29073 ft | 425 kts | 186° |
| 2026-05-03 20:37 | 32.66259 | -84.41531 | 29413 ft | 427 kts | 186° |
| 2026-05-03 20:37 | 32.63288 | -84.41471 | 29752 ft | 428 kts | 187° |
| 2026-05-03 20:37 | 32.60299 | -84.41417 | 30083 ft | 430 kts | 187° |
| 2026-05-03 20:37 | 32.57303 | -84.41362 | 30340 ft | 430 kts | 185° |
| 2026-05-03 20:38 | 32.54310 | -84.41309 | 30583 ft | 431 kts | 187° |
| 2026-05-03 20:38 | 32.51304 | -84.41264 | 30859 ft | 432 kts | 187° |
| 2026-05-03 20:38 | 32.48303 | -84.41226 | 31133 ft | 431 kts | 188° |
| 2026-05-03 20:38 | 32.45306 | -84.41193 | 31455 ft | 431 kts | 186° |
| 2026-05-03 20:39 | 32.42312 | -84.41159 | 31797 ft | 429 kts | 188° |
| 2026-05-03 20:39 | 32.39333 | -84.41129 | 32166 ft | 427 kts | 188° |
| 2026-05-03 20:39 | 32.36367 | -84.41098 | 32529 ft | 426 kts | 188° |
| 2026-05-03 20:39 | 32.33403 | -84.41018 | 32842 ft | 426 kts | 187° |
| 2026-05-03 20:40 | 32.30479 | -84.40907 | 33165 ft | 425 kts | 187° |
| 2026-05-03 20:40 | 32.27527 | -84.40791 | 33519 ft | 423 kts | 187° |
| 2026-05-03 20:40 | 32.24589 | -84.40689 | 33876 ft | 421 kts | 188° |
| 2026-05-03 20:40 | 32.21664 | -84.40609 | 34203 ft | 419 kts | 188° |
| 2026-05-03 20:41 | 32.18761 | -84.40547 | 34542 ft | 416 kts | 189° |
| 2026-05-03 20:41 | 32.15878 | -84.40496 | 34849 ft | 414 kts | 189° |
| 2026-05-03 20:41 | 32.13006 | -84.40454 | 35122 ft | 413 kts | 189° |
| 2026-05-03 20:41 | 32.10133 | -84.40410 | 35384 ft | 412 kts | 189° |
| 2026-05-03 20:42 | 32.07272 | -84.40361 | 35634 ft | 411 kts | 189° |
| 2026-05-03 20:42 | 32.04410 | -84.40305 | 35874 ft | 411 kts | 189° |
| 2026-05-03 20:42 | 32.01553 | -84.40244 | 36089 ft | 411 kts | 189° |
| 2026-05-03 20:42 | 31.98694 | -84.40184 | 36303 ft | 410 kts | 189° |
| 2026-05-03 20:43 | 31.95843 | -84.40126 | 36535 ft | 410 kts | 189° |
| 2026-05-03 20:43 | 31.92992 | -84.40070 | 36734 ft | 408 kts | 190° |
| 2026-05-03 20:43 | 31.90158 | -84.40015 | 36994 ft | 406 kts | 190° |
| 2026-05-03 20:43 | 31.87369 | -84.39959 | 37123 ft | 406 kts | 190° |
| 2026-05-03 20:44 | 31.84555 | -84.39904 | 37151 ft | 404 kts | 190° |
| 2026-05-03 20:44 | 31.78940 | -84.39796 | 37155 ft | 403 kts | 190° |
| 2026-05-03 20:45 | 31.73334 | -84.39688 | 37152 ft | 403 kts | 190° |
| 2026-05-03 20:45 | 31.67705 | -84.39578 | 37158 ft | 403 kts | 190° |
| 2026-05-03 20:46 | 31.62119 | -84.39482 | 37164 ft | 402 kts | 191° |
| 2026-05-03 20:46 | 31.56535 | -84.39488 | 37170 ft | 401 kts | 191° |
| 2026-05-03 20:47 | 31.50951 | -84.39527 | 37168 ft | 401 kts | 191° |
| 2026-05-03 20:47 | 31.45370 | -84.39542 | 37167 ft | 401 kts | 191° |
| 2026-05-03 20:48 | 31.39789 | -84.39550 | 37113 ft | 401 kts | 191° |
| 2026-05-03 20:48 | 31.34207 | -84.39559 | 37140 ft | 401 kts | 191° |
| 2026-05-03 20:49 | 31.28633 | -84.39568 | 37157 ft | 401 kts | 191° |
| 2026-05-03 20:49 | 31.23056 | -84.39577 | 37167 ft | 400 kts | 191° |
| 2026-05-03 20:50 | 31.17479 | -84.39585 | 37169 ft | 400 kts | 191° |
| 2026-05-03 20:50 | 31.11912 | -84.39588 | 37118 ft | 400 kts | 192° |
| 2026-05-03 20:51 | 31.06345 | -84.39596 | 37141 ft | 400 kts | 191° |
| 2026-05-03 20:51 | 31.00782 | -84.39601 | 37153 ft | 400 kts | 191° |
| 2026-05-03 20:52 | 30.95257 | -84.39611 | 37160 ft | 399 kts | 192° |
| 2026-05-03 20:52 | 30.89698 | -84.39624 | 37162 ft | 399 kts | 192° |
| 2026-05-03 20:53 | 30.84137 | -84.39631 | 37157 ft | 400 kts | 191° |
| 2026-05-03 20:53 | 30.78576 | -84.39633 | 37137 ft | 399 kts | 192° |
| 2026-05-03 20:54 | 30.73021 | -84.39641 | 37146 ft | 399 kts | 192° |
| 2026-05-03 20:54 | 30.64687 | -84.39652 | 37153 ft | 399 kts | 192° |
| 2026-05-03 20:55 | 30.59133 | -84.39653 | 37153 ft | 399 kts | 192° |
| 2026-05-03 20:55 | 30.53579 | -84.39659 | 37154 ft | 399 kts | 192° |
| 2026-05-03 20:56 | 30.48031 | -84.39672 | 37149 ft | 399 kts | 192° |
| 2026-05-03 20:56 | 30.42512 | -84.39688 | 37150 ft | 399 kts | 192° |
| 2026-05-03 20:57 | 30.36950 | -84.39616 | 37150 ft | 407 kts | 186° |
| 2026-05-03 20:57 | 30.34116 | -84.38962 | 37149 ft | 425 kts | 175° |
| 2026-05-03 20:57 | 30.31327 | -84.37590 | 37148 ft | 445 kts | 162° |
| 2026-05-03 20:58 | 30.28743 | -84.35470 | 37150 ft | 465 kts | 151° |
| 2026-05-03 20:58 | 30.26292 | -84.33016 | 37100 ft | 466 kts | 152° |
| 2026-05-03 20:58 | 30.21379 | -84.28110 | 37080 ft | 466 kts | 152° |
| 2026-05-03 20:59 | 30.16488 | -84.23265 | 37113 ft | 466 kts | 152° |
| 2026-05-03 20:59 | 30.11558 | -84.18404 | 37124 ft | 466 kts | 152° |
| 2026-05-03 21:00 | 30.08259 | -84.15154 | 37130 ft | 466 kts | 152° |
| 2026-05-03 21:00 | 30.01701 | -84.08683 | 37133 ft | 466 kts | 152° |
| 2026-05-03 21:01 | 29.97569 | -84.04613 | 37091 ft | 466 kts | 152° |
| 2026-05-03 21:01 | 29.92669 | -83.99793 | 37107 ft | 466 kts | 152° |
| 2026-05-03 21:02 | 29.87732 | -83.94951 | 37120 ft | 466 kts | 153° |
| 2026-05-03 21:02 | 29.82771 | -83.90159 | 37110 ft | 460 kts | 157° |
| 2026-05-03 21:03 | 29.80137 | -83.88183 | 37115 ft | 445 kts | 164° |
| 2026-05-03 21:03 | 29.77432 | -83.86439 | 37113 ft | 445 kts | 164° |
| 2026-05-03 21:03 | 29.72024 | -83.82965 | 37122 ft | 445 kts | 164° |
| 2026-05-03 21:04 | 29.66618 | -83.79481 | 37068 ft | 445 kts | 164° |
| 2026-05-03 21:04 | 29.61205 | -83.75993 | 37084 ft | 446 kts | 165° |
| 2026-05-03 21:05 | 29.55778 | -83.72498 | 36575 ft | 450 kts | 164° |
| 2026-05-03 21:05 | 29.53010 | -83.70734 | 35373 ft | 460 kts | 163° |
| 2026-05-03 21:05 | 29.50180 | -83.68938 | 34293 ft | 468 kts | 163° |
| 2026-05-03 21:06 | 29.47367 | -83.67141 | 33220 ft | 466 kts | 162° |
| 2026-05-03 21:06 | 29.44555 | -83.65325 | 32248 ft | 457 kts | 161° |
| 2026-05-03 21:06 | 29.41865 | -83.63564 | 31824 ft | 437 kts | 161° |
| 2026-05-03 21:06 | 29.39270 | -83.61868 | 31255 ft | 422 kts | 162° |
| 2026-05-03 21:07 | 29.36750 | -83.60236 | 30718 ft | 408 kts | 162° |
| 2026-05-03 21:07 | 29.34314 | -83.58674 | 30199 ft | 397 kts | 162° |
| 2026-05-03 21:07 | 29.31901 | -83.57146 | 29636 ft | 395 kts | 162° |
| 2026-05-03 21:07 | 29.29496 | -83.55633 | 29133 ft | 395 kts | 162° |
| 2026-05-03 21:08 | 29.27087 | -83.54120 | 28623 ft | 394 kts | 161° |
| 2026-05-03 21:08 | 29.24698 | -83.52609 | 28114 ft | 392 kts | 161° |
| 2026-05-03 21:08 | 29.22318 | -83.51093 | 27640 ft | 390 kts | 161° |
| 2026-05-03 21:08 | 29.19947 | -83.49585 | 27168 ft | 395 kts | 161° |
| 2026-05-03 21:09 | 29.17507 | -83.48060 | 26693 ft | 403 kts | 161° |
| 2026-05-03 21:09 | 29.15048 | -83.46514 | 26228 ft | 403 kts | 160° |
| 2026-05-03 21:09 | 29.12595 | -83.44957 | 25768 ft | 402 kts | 160° |
| 2026-05-03 21:09 | 29.10157 | -83.43399 | 25318 ft | 400 kts | 160° |
| 2026-05-03 21:10 | 29.07767 | -83.41864 | 24847 ft | 399 kts | 160° |
| 2026-05-03 21:10 | 29.05356 | -83.40316 | 24414 ft | 397 kts | 159° |
| 2026-05-03 21:10 | 29.02950 | -83.38782 | 23986 ft | 395 kts | 159° |
| 2026-05-03 21:10 | 29.00555 | -83.37262 | 23543 ft | 393 kts | 159° |
| 2026-05-03 21:11 | 28.98169 | -83.35752 | 23038 ft | 391 kts | 159° |
| 2026-05-03 21:11 | 28.95798 | -83.34254 | 22528 ft | 388 kts | 159° |
| 2026-05-03 21:11 | 28.93446 | -83.32764 | 22056 ft | 386 kts | 159° |
| 2026-05-03 21:11 | 28.91110 | -83.31282 | 21575 ft | 383 kts | 159° |
| 2026-05-03 21:12 | 28.88783 | -83.29809 | 21095 ft | 381 kts | 159° |
| 2026-05-03 21:12 | 28.86474 | -83.28348 | 20632 ft | 378 kts | 158° |
| 2026-05-03 21:12 | 28.84179 | -83.26897 | 20176 ft | 376 kts | 158° |
| 2026-05-03 21:12 | 28.81892 | -83.25450 | 19724 ft | 374 kts | 158° |
| 2026-05-03 21:13 | 28.79626 | -83.24020 | 19281 ft | 372 kts | 158° |
| 2026-05-03 21:13 | 28.77367 | -83.22592 | 18825 ft | 370 kts | 158° |
| 2026-05-03 21:13 | 28.75153 | -83.21192 | 18400 ft | 368 kts | 158° |
| 2026-05-03 21:13 | 28.72919 | -83.19782 | 17907 ft | 366 kts | 158° |
| 2026-05-03 21:14 | 28.70698 | -83.18383 | 17412 ft | 364 kts | 158° |
| 2026-05-03 21:14 | 28.68488 | -83.16991 | 16928 ft | 362 kts | 158° |
| 2026-05-03 21:14 | 28.66286 | -83.15603 | 16445 ft | 361 kts | 158° |
| 2026-05-03 21:14 | 28.64088 | -83.14217 | 15975 ft | 359 kts | 158° |
| 2026-05-03 21:15 | 28.61904 | -83.12842 | 15515 ft | 358 kts | 158° |
| 2026-05-03 21:15 | 28.59729 | -83.11473 | 15061 ft | 357 kts | 158° |
| 2026-05-03 21:15 | 28.57560 | -83.10108 | 14607 ft | 355 kts | 158° |
| 2026-05-03 21:15 | 28.55403 | -83.08751 | 14162 ft | 354 kts | 158° |
| 2026-05-03 21:16 | 28.53249 | -83.07398 | 13707 ft | 352 kts | 157° |
| 2026-05-03 21:16 | 28.51108 | -83.06052 | 13216 ft | 350 kts | 157° |
| 2026-05-03 21:16 | 28.48983 | -83.04714 | 12733 ft | 348 kts | 157° |
| 2026-05-03 21:16 | 28.46866 | -83.03382 | 12239 ft | 346 kts | 156° |
| 2026-05-03 21:17 | 28.44767 | -83.02066 | 11771 ft | 344 kts | 156° |
| 2026-05-03 21:17 | 28.43383 | -83.01199 | 11465 ft | 342 kts | 156° |
| 2026-05-03 21:17 | 28.40642 | -82.99481 | 11043 ft | 334 kts | 156° |
| 2026-05-03 21:17 | 28.38635 | -82.98222 | 10740 ft | 328 kts | 156° |
| 2026-05-03 21:18 | 28.36606 | -82.96956 | 10204 ft | 331 kts | 156° |
| 2026-05-03 21:18 | 28.34630 | -82.95718 | 10087 ft | 319 kts | 156° |
| 2026-05-03 21:18 | 28.32724 | -82.94522 | 9923 ft | 309 kts | 156° |
| 2026-05-03 21:18 | 28.30862 | -82.93357 | 9721 ft | 303 kts | 156° |
| 2026-05-03 21:19 | 28.29019 | -82.92207 | 9603 ft | 302 kts | 156° |
| 2026-05-03 21:19 | 28.27228 | -82.90967 | 9408 ft | 303 kts | 146° |
| 2026-05-03 21:19 | 28.25667 | -82.89341 | 9207 ft | 305 kts | 139° |
| 2026-05-03 21:19 | 28.24153 | -82.87657 | 9002 ft | 304 kts | 139° |
| 2026-05-03 21:20 | 28.22646 | -82.85986 | 8791 ft | 302 kts | 139° |
| 2026-05-03 21:20 | 28.21144 | -82.84326 | 8594 ft | 301 kts | 139° |
| 2026-05-03 21:20 | 28.19647 | -82.82671 | 8390 ft | 300 kts | 138° |
| 2026-05-03 21:20 | 28.18155 | -82.81025 | 8188 ft | 298 kts | 138° |
| 2026-05-03 21:21 | 28.16672 | -82.79394 | 7984 ft | 297 kts | 138° |
| 2026-05-03 21:21 | 28.15193 | -82.77768 | 7789 ft | 296 kts | 138° |
| 2026-05-03 21:21 | 28.13718 | -82.76143 | 7595 ft | 295 kts | 138° |
| 2026-05-03 21:21 | 28.12247 | -82.74523 | 7379 ft | 294 kts | 138° |
| 2026-05-03 21:22 | 28.10785 | -82.72914 | 7187 ft | 292 kts | 137° |
| 2026-05-03 21:22 | 28.09333 | -82.71316 | 6988 ft | 290 kts | 137° |
| 2026-05-03 21:22 | 28.07889 | -82.69726 | 6797 ft | 289 kts | 137° |
| 2026-05-03 21:22 | 28.06460 | -82.68126 | 6594 ft | 288 kts | 136° |
| 2026-05-03 21:23 | 28.05071 | -82.66537 | 6394 ft | 287 kts | 136° |
| 2026-05-03 21:23 | 28.03676 | -82.64926 | 6194 ft | 286 kts | 135° |
| 2026-05-03 21:23 | 28.02259 | -82.63347 | 5988 ft | 285 kts | 142° |
| 2026-05-03 21:23 | 28.00588 | -82.62188 | 5795 ft | 281 kts | 158° |
| 2026-05-03 21:24 | 27.98713 | -82.61631 | 5598 ft | 278 kts | 175° |
| 2026-05-03 21:24 | 27.96787 | -82.61629 | 5433 ft | 273 kts | 182° |
| 2026-05-03 21:24 | 27.94942 | -82.61708 | 5322 ft | 259 kts | 182° |
| 2026-05-03 21:24 | 27.93184 | -82.61779 | 5213 ft | 247 kts | 182° |
| 2026-05-03 21:25 | 27.91473 | -82.61847 | 5103 ft | 245 kts | 181° |
| 2026-05-03 21:25 | 27.89773 | -82.61917 | 5002 ft | 244 kts | 181° |
| 2026-05-03 21:25 | 27.88075 | -82.61986 | 5008 ft | 244 kts | 181° |
| 2026-05-03 21:25 | 27.86381 | -82.62055 | 5008 ft | 243 kts | 182° |
| 2026-05-03 21:26 | 27.84686 | -82.62121 | 4993 ft | 244 kts | 182° |
| 2026-05-03 21:26 | 27.82984 | -82.62190 | 4797 ft | 246 kts | 181° |
| 2026-05-03 21:26 | 27.81313 | -82.62267 | 4426 ft | 243 kts | 181° |
| 2026-05-03 21:26 | 27.79628 | -82.62335 | 4054 ft | 242 kts | 180° |
| 2026-05-03 21:27 | 27.77947 | -82.62392 | 3684 ft | 240 kts | 180° |
| 2026-05-03 21:27 | 27.76284 | -82.62423 | 3318 ft | 239 kts | 175° |
| 2026-05-03 21:27 | 27.74756 | -82.61875 | 3003 ft | 224 kts | 140° |
| 2026-05-03 21:27 | 27.73836 | -82.60523 | 2995 ft | 216 kts | 105° |
| 2026-05-03 21:28 | 27.73668 | -82.58859 | 2991 ft | 215 kts | 86° |
| 2026-05-03 21:28 | 27.73751 | -82.57181 | 2990 ft | 214 kts | 85° |
| 2026-05-03 21:28 | 27.73928 | -82.55519 | 2987 ft | 213 kts | 70° |
| 2026-05-03 21:28 | 27.74771 | -82.54199 | 2989 ft | 212 kts | 31° |
| 2026-05-03 21:29 | 27.76200 | -82.53897 | 2988 ft | 215 kts | 348° |
| 2026-05-03 21:29 | 27.77535 | -82.54614 | 2988 ft | 213 kts | 334° |
| 2026-05-03 21:29 | 27.78919 | -82.55007 | 2985 ft | 204 kts | 9° |
| 2026-05-03 21:29 | 27.80325 | -82.54788 | 2978 ft | 205 kts | 6° |
| 2026-05-03 21:30 | 27.81732 | -82.54723 | 2796 ft | 200 kts | 3° |
| 2026-05-03 21:30 | 27.83111 | -82.54682 | 2558 ft | 197 kts | 4° |
| 2026-05-03 21:30 | 27.84466 | -82.54638 | 2348 ft | 192 kts | 2° |
| 2026-05-03 21:30 | 27.85791 | -82.54594 | 2064 ft | 189 kts | 3° |
| 2026-05-03 21:31 | 27.87084 | -82.54550 | 1815 ft | 183 kts | 3° |
| 2026-05-03 21:31 | 27.88343 | -82.54507 | 1578 ft | 182 kts | 3° |
| 2026-05-03 21:31 | 27.89617 | -82.54464 | 1338 ft | 180 kts | 3° |
| 2026-05-03 21:31 | 27.90804 | -82.54424 | 1101 ft | 164 kts | 5° |
| 2026-05-03 21:32 | 27.91894 | -82.54388 | 925 ft | 149 kts | 4° |
| 2026-05-03 21:32 | 27.92885 | -82.54354 | 722 ft | 136 kts | 4° |
| 2026-05-03 21:32 | 27.93842 | -82.54321 | 547 ft | 135 kts | 5° |
| 2026-05-03 21:32 | 27.94779 | -82.54288 | 369 ft | 135 kts | 7° |
| 2026-05-03 21:33 | 27.95713 | -82.54266 | 206 ft | 135 kts | 4° |
| 2026-05-03 21:33 | 27.96648 | -82.54225 | 56 ft | 132 kts | 4° |
| 2026-05-03 21:33 | 27.97468 | -82.54196 | 50 ft | 99 kts | 1° |
| 2026-05-03 21:33 | 27.97862 | -82.54184 | 48 ft | 28 kts | 1° |
| 2026-05-03 21:34 | 27.98059 | -82.54178 | 47 ft | 29 kts | 2° |
| 2026-05-03 21:34 | 27.98235 | -82.54149 | 50 ft | 20 kts | 32° |
| 2026-05-03 21:34 | 27.98315 | -82.54080 | 49 ft | 0 kts | 50° |
| 2026-05-03 21:36 | 27.98332 | -82.54040 | 47 ft | 12 kts | 73° |
| 2026-05-03 21:36 | 27.98301 | -82.53960 | 47 ft | 12 kts | 165° |
| 2026-05-03 21:37 | 27.98218 | -82.53958 | 47 ft | 12 kts | 180° |
| 2026-05-03 21:37 | 27.98140 | -82.53958 | 47 ft | 10 kts | 180° |
| 2026-05-03 21:37 | 27.98095 | -82.53956 | 47 ft | 6 kts | 163° |
| 2026-05-03 21:37 | 27.98079 | -82.53908 | 44 ft | 5 kts | 92° |
| 2026-05-03 21:38 | 27.98079 | -82.53880 | 44 ft | 0 kts | 91° |